sensor_id;sensor_type;location;lat;lon;timestamp;P1;durP1;ratioP1;P2;durP2;ratioP2
64029;SDS011;50277;52.064;4.492;2024-02-14T00:01:54;10.73;;;9.55;;
64029;SDS011;50277;52.064;4.492;2024-02-14T00:04:20;11.75;;;9.68;;
64029;SDS011;50277;52.064;4.492;2024-02-14T00:06:46;16.45;;;10.13;;
64029;SDS011;50277;52.064;4.492;2024-02-14T00:09:11;11.48;;;9.90;;
64029;SDS011;50277;52.064;4.492;2024-02-14T00:11:37;11.85;;;10.23;;
64029;SDS011;50277;52.064;4.492;2024-02-14T00:14:02;14.13;;;11.05;;
64029;SDS011;50277;52.064;4.492;2024-02-14T00:16:28;13.07;;;11.25;;
64029;SDS011;50277;52.064;4.492;2024-02-14T00:18:55;15.07;;;12.27;;
64029;SDS011;50277;52.064;4.492;2024-02-14T00:21:21;14.55;;;12.20;;
64029;SDS011;50277;52.064;4.492;2024-02-14T00:23:47;13.35;;;11.70;;
64029;SDS011;50277;52.064;4.492;2024-02-14T00:26:12;14.18;;;12.35;;
64029;SDS011;50277;52.064;4.492;2024-02-14T00:28:38;13.30;;;11.98;;
64029;SDS011;50277;52.064;4.492;2024-02-14T00:31:03;15.02;;;13.45;;
64029;SDS011;50277;52.064;4.492;2024-02-14T00:33:28;13.38;;;12.05;;
64029;SDS011;50277;52.064;4.492;2024-02-14T00:35:54;15.73;;;13.18;;
64029;SDS011;50277;52.064;4.492;2024-02-14T00:38:19;18.70;;;14.90;;
64029;SDS011;50277;52.064;4.492;2024-02-14T00:40:44;16.38;;;14.73;;
64029;SDS011;50277;52.064;4.492;2024-02-14T00:43:10;16.10;;;14.18;;
64029;SDS011;50277;52.064;4.492;2024-02-14T00:45:35;15.52;;;13.95;;
64029;SDS011;50277;52.064;4.492;2024-02-14T00:48:03;14.30;;;12.68;;
64029;SDS011;50277;52.064;4.492;2024-02-14T00:50:29;16.15;;;14.48;;
64029;SDS011;50277;52.064;4.492;2024-02-14T00:52:54;16.80;;;13.88;;
64029;SDS011;50277;52.064;4.492;2024-02-14T00:55:19;18.05;;;14.07;;
64029;SDS011;50277;52.064;4.492;2024-02-14T00:57:45;16.63;;;14.18;;
64029;SDS011;50277;52.064;4.492;2024-02-14T01:00:10;15.80;;;14.20;;
64029;SDS011;50277;52.064;4.492;2024-02-14T01:02:35;16.63;;;13.27;;
64029;SDS011;50277;52.064;4.492;2024-02-14T01:05:01;18.65;;;13.45;;
64029;SDS011;50277;52.064;4.492;2024-02-14T01:07:27;15.25;;;13.75;;
64029;SDS011;50277;52.064;4.492;2024-02-14T01:09:52;14.65;;;13.15;;
64029;SDS011;50277;52.064;4.492;2024-02-14T01:12:17;20.08;;;14.25;;
64029;SDS011;50277;52.064;4.492;2024-02-14T01:14:43;17.92;;;13.80;;
64029;SDS011;50277;52.064;4.492;2024-02-14T01:17:08;16.83;;;12.48;;
64029;SDS011;50277;52.064;4.492;2024-02-14T01:19:33;19.60;;;13.13;;
64029;SDS011;50277;52.064;4.492;2024-02-14T01:21:59;15.20;;;11.25;;
64029;SDS011;50277;52.064;4.492;2024-02-14T01:24:24;17.40;;;11.55;;
64029;SDS011;50277;52.064;4.492;2024-02-14T01:26:52;19.48;;;12.48;;
64029;SDS011;50277;52.064;4.492;2024-02-14T01:29:20;13.45;;;11.55;;
64029;SDS011;50277;52.064;4.492;2024-02-14T01:31:45;13.80;;;11.20;;
64029;SDS011;50277;52.064;4.492;2024-02-14T01:34:10;15.75;;;10.80;;
64029;SDS011;50277;52.064;4.492;2024-02-14T01:36:36;17.05;;;11.43;;
64029;SDS011;50277;52.064;4.492;2024-02-14T01:39:03;14.65;;;11.60;;
64029;SDS011;50277;52.064;4.492;2024-02-14T01:41:29;11.63;;;10.27;;
64029;SDS011;50277;52.064;4.492;2024-02-14T01:43:54;14.90;;;11.90;;
64029;SDS011;50277;52.064;4.492;2024-02-14T01:46:19;15.23;;;10.32;;
64029;SDS011;50277;52.064;4.492;2024-02-14T01:48:45;18.02;;;11.13;;
64029;SDS011;50277;52.064;4.492;2024-02-14T01:51:11;11.95;;;10.75;;
64029;SDS011;50277;52.064;4.492;2024-02-14T01:53:36;10.82;;;9.73;;
64029;SDS011;50277;52.064;4.492;2024-02-14T01:56:03;11.82;;;10.27;;
64029;SDS011;50277;52.064;4.492;2024-02-14T01:58:29;11.07;;;9.15;;
64029;SDS011;50277;52.064;4.492;2024-02-14T02:00:55;11.02;;;8.73;;
64029;SDS011;50277;52.064;4.492;2024-02-14T02:03:25;10.70;;;7.47;;
64029;SDS011;50277;52.064;4.492;2024-02-14T02:05:51;9.48;;;7.80;;
64029;SDS011;50277;52.064;4.492;2024-02-14T02:08:17;11.10;;;7.50;;
64029;SDS011;50277;52.064;4.492;2024-02-14T02:10:42;11.70;;;8.07;;
64029;SDS011;50277;52.064;4.492;2024-02-14T02:13:08;10.57;;;7.75;;
64029;SDS011;50277;52.064;4.492;2024-02-14T02:15:34;12.25;;;7.95;;
64029;SDS011;50277;52.064;4.492;2024-02-14T02:17:59;9.65;;;7.40;;
64029;SDS011;50277;52.064;4.492;2024-02-14T02:20:25;9.45;;;8.18;;
64029;SDS011;50277;52.064;4.492;2024-02-14T02:22:52;9.65;;;7.00;;
64029;SDS011;50277;52.064;4.492;2024-02-14T02:25:18;8.98;;;7.30;;
64029;SDS011;50277;52.064;4.492;2024-02-14T02:27:48;10.13;;;7.15;;
64029;SDS011;50277;52.064;4.492;2024-02-14T02:30:13;9.70;;;7.55;;
64029;SDS011;50277;52.064;4.492;2024-02-14T02:32:39;10.88;;;7.47;;
64029;SDS011;50277;52.064;4.492;2024-02-14T02:35:04;9.45;;;7.32;;
64029;SDS011;50277;52.064;4.492;2024-02-14T02:37:30;12.02;;;7.65;;
64029;SDS011;50277;52.064;4.492;2024-02-14T02:39:56;16.13;;;7.57;;
64029;SDS011;50277;52.064;4.492;2024-02-14T02:42:22;15.93;;;7.55;;
64029;SDS011;50277;52.064;4.492;2024-02-14T02:44:48;7.20;;;6.20;;
64029;SDS011;50277;52.064;4.492;2024-02-14T02:47:14;15.98;;;7.22;;
64029;SDS011;50277;52.064;4.492;2024-02-14T02:49:41;16.98;;;7.50;;
64029;SDS011;50277;52.064;4.492;2024-02-14T02:52:09;12.57;;;7.55;;
64029;SDS011;50277;52.064;4.492;2024-02-14T02:54:35;14.50;;;7.05;;
64029;SDS011;50277;52.064;4.492;2024-02-14T02:57:01;16.25;;;7.57;;
64029;SDS011;50277;52.064;4.492;2024-02-14T02:59:28;16.85;;;6.57;;
64029;SDS011;50277;52.064;4.492;2024-02-14T03:01:54;19.85;;;6.82;;
64029;SDS011;50277;52.064;4.492;2024-02-14T03:04:20;22.45;;;7.32;;
64029;SDS011;50277;52.064;4.492;2024-02-14T03:06:46;13.48;;;5.53;;
64029;SDS011;50277;52.064;4.492;2024-02-14T03:09:11;20.05;;;6.50;;
64029;SDS011;50277;52.064;4.492;2024-02-14T03:11:37;19.10;;;6.00;;
64029;SDS011;50277;52.064;4.492;2024-02-14T03:14:03;29.45;;;6.55;;
64029;SDS011;50277;52.064;4.492;2024-02-14T03:16:28;19.25;;;6.25;;
64029;SDS011;50277;52.064;4.492;2024-02-14T03:18:55;27.02;;;5.22;;
64029;SDS011;50277;52.064;4.492;2024-02-14T03:21:20;19.15;;;4.95;;
64029;SDS011;50277;52.064;4.492;2024-02-14T03:23:45;24.52;;;4.97;;
64029;SDS011;50277;52.064;4.492;2024-02-14T03:26:11;25.50;;;6.03;;
64029;SDS011;50277;52.064;4.492;2024-02-14T03:28:36;23.80;;;5.72;;
64029;SDS011;50277;52.064;4.492;2024-02-14T03:31:01;18.15;;;4.72;;
64029;SDS011;50277;52.064;4.492;2024-02-14T03:33:27;25.40;;;5.78;;
64029;SDS011;50277;52.064;4.492;2024-02-14T03:35:54;26.75;;;5.63;;
64029;SDS011;50277;52.064;4.492;2024-02-14T03:38:26;21.27;;;4.90;;
64029;SDS011;50277;52.064;4.492;2024-02-14T03:40:52;28.52;;;4.97;;
64029;SDS011;50277;52.064;4.492;2024-02-14T03:43:17;23.00;;;5.00;;
64029;SDS011;50277;52.064;4.492;2024-02-14T03:45:42;34.90;;;6.28;;
64029;SDS011;50277;52.064;4.492;2024-02-14T03:48:08;27.33;;;5.55;;
64029;SDS011;50277;52.064;4.492;2024-02-14T03:50:34;23.60;;;5.45;;
64029;SDS011;50277;52.064;4.492;2024-02-14T03:53:00;33.78;;;5.82;;
64029;SDS011;50277;52.064;4.492;2024-02-14T03:55:26;22.83;;;5.22;;
64029;SDS011;50277;52.064;4.492;2024-02-14T03:57:52;28.65;;;5.40;;
64029;SDS011;50277;52.064;4.492;2024-02-14T04:00:17;24.73;;;5.53;;
64029;SDS011;50277;52.064;4.492;2024-02-14T04:02:43;23.17;;;4.88;;
64029;SDS011;50277;52.064;4.492;2024-02-14T04:05:08;17.73;;;5.43;;
64029;SDS011;50277;52.064;4.492;2024-02-14T04:07:34;23.55;;;5.47;;
64029;SDS011;50277;52.064;4.492;2024-02-14T04:09:59;19.95;;;5.65;;
64029;SDS011;50277;52.064;4.492;2024-02-14T04:12:25;21.48;;;5.45;;
64029;SDS011;50277;52.064;4.492;2024-02-14T04:14:50;20.27;;;5.32;;
64029;SDS011;50277;52.064;4.492;2024-02-14T04:17:15;15.65;;;5.18;;
64029;SDS011;50277;52.064;4.492;2024-02-14T04:19:41;21.35;;;5.80;;
64029;SDS011;50277;52.064;4.492;2024-02-14T04:22:07;17.98;;;5.90;;
64029;SDS011;50277;52.064;4.492;2024-02-14T04:24:33;22.27;;;5.70;;
64029;SDS011;50277;52.064;4.492;2024-02-14T04:26:59;25.08;;;6.05;;
64029;SDS011;50277;52.064;4.492;2024-02-14T04:29:26;19.05;;;5.85;;
64029;SDS011;50277;52.064;4.492;2024-02-14T04:31:53;24.88;;;5.97;;
64029;SDS011;50277;52.064;4.492;2024-02-14T04:34:18;20.33;;;5.10;;
64029;SDS011;50277;52.064;4.492;2024-02-14T04:36:44;21.50;;;5.57;;
64029;SDS011;50277;52.064;4.492;2024-02-14T04:39:10;24.98;;;6.13;;
64029;SDS011;50277;52.064;4.492;2024-02-14T04:41:35;29.23;;;6.22;;
64029;SDS011;50277;52.064;4.492;2024-02-14T04:44:02;20.40;;;6.22;;
64029;SDS011;50277;52.064;4.492;2024-02-14T04:46:31;26.42;;;6.72;;
64029;SDS011;50277;52.064;4.492;2024-02-14T04:48:57;27.90;;;7.25;;
64029;SDS011;50277;52.064;4.492;2024-02-14T04:51:22;19.05;;;5.82;;
64029;SDS011;50277;52.064;4.492;2024-02-14T04:53:47;21.15;;;6.28;;
64029;SDS011;50277;52.064;4.492;2024-02-14T04:56:13;25.27;;;5.65;;
64029;SDS011;50277;52.064;4.492;2024-02-14T04:58:38;17.02;;;5.20;;
64029;SDS011;50277;52.064;4.492;2024-02-14T05:01:03;21.55;;;6.07;;
64029;SDS011;50277;52.064;4.492;2024-02-14T05:03:29;17.88;;;5.47;;
64029;SDS011;50277;52.064;4.492;2024-02-14T05:05:54;16.98;;;4.65;;
64029;SDS011;50277;52.064;4.492;2024-02-14T05:08:19;22.35;;;5.10;;
64029;SDS011;50277;52.064;4.492;2024-02-14T05:10:45;19.67;;;5.00;;
64029;SDS011;50277;52.064;4.492;2024-02-14T05:13:11;17.50;;;4.65;;
64029;SDS011;50277;52.064;4.492;2024-02-14T05:15:38;17.98;;;5.55;;
64029;SDS011;50277;52.064;4.492;2024-02-14T05:18:03;17.45;;;4.80;;
64029;SDS011;50277;52.064;4.492;2024-02-14T05:20:30;17.35;;;4.65;;
64029;SDS011;50277;52.064;4.492;2024-02-14T05:22:56;14.40;;;4.55;;
64029;SDS011;50277;52.064;4.492;2024-02-14T05:25:21;20.33;;;5.55;;
64029;SDS011;50277;52.064;4.492;2024-02-14T05:27:47;16.30;;;4.82;;
64029;SDS011;50277;52.064;4.492;2024-02-14T05:30:12;21.02;;;5.30;;
64029;SDS011;50277;52.064;4.492;2024-02-14T05:32:39;12.95;;;3.63;;
64029;SDS011;50277;52.064;4.492;2024-02-14T05:35:04;16.40;;;4.57;;
64029;SDS011;50277;52.064;4.492;2024-02-14T05:37:31;19.10;;;4.50;;
64029;SDS011;50277;52.064;4.492;2024-02-14T05:39:56;14.48;;;4.63;;
64029;SDS011;50277;52.064;4.492;2024-02-14T05:42:22;15.88;;;4.25;;
64029;SDS011;50277;52.064;4.492;2024-02-14T05:44:47;14.82;;;4.88;;
64029;SDS011;50277;52.064;4.492;2024-02-14T05:47:13;17.45;;;4.85;;
64029;SDS011;50277;52.064;4.492;2024-02-14T05:49:39;21.80;;;5.05;;
64029;SDS011;50277;52.064;4.492;2024-02-14T05:52:08;15.05;;;5.13;;
64029;SDS011;50277;52.064;4.492;2024-02-14T05:54:33;23.55;;;6.57;;
64029;SDS011;50277;52.064;4.492;2024-02-14T05:56:59;15.32;;;6.18;;
64029;SDS011;50277;52.064;4.492;2024-02-14T05:59:24;23.15;;;6.05;;
64029;SDS011;50277;52.064;4.492;2024-02-14T06:01:50;23.88;;;7.30;;
64029;SDS011;50277;52.064;4.492;2024-02-14T06:04:15;20.90;;;6.68;;
64029;SDS011;50277;52.064;4.492;2024-02-14T06:06:41;21.33;;;7.85;;
64029;SDS011;50277;52.064;4.492;2024-02-14T06:09:06;17.17;;;7.38;;
64029;SDS011;50277;52.064;4.492;2024-02-14T06:11:35;23.10;;;8.48;;
64029;SDS011;50277;52.064;4.492;2024-02-14T06:14:03;27.27;;;9.05;;
64029;SDS011;50277;52.064;4.492;2024-02-14T06:16:29;21.38;;;8.27;;
64029;SDS011;50277;52.064;4.492;2024-02-14T06:18:54;26.75;;;7.53;;
64029;SDS011;50277;52.064;4.492;2024-02-14T06:21:20;21.02;;;8.30;;
64029;SDS011;50277;52.064;4.492;2024-02-14T06:23:45;22.95;;;8.55;;
64029;SDS011;50277;52.064;4.492;2024-02-14T06:26:11;20.67;;;8.93;;
64029;SDS011;50277;52.064;4.492;2024-02-14T06:28:37;23.77;;;9.43;;
64029;SDS011;50277;52.064;4.492;2024-02-14T06:31:02;21.80;;;8.75;;
64029;SDS011;50277;52.064;4.492;2024-02-14T06:33:28;17.63;;;8.60;;
64029;SDS011;50277;52.064;4.492;2024-02-14T06:35:53;22.75;;;9.35;;
64029;SDS011;50277;52.064;4.492;2024-02-14T06:38:18;25.42;;;9.82;;
64029;SDS011;50277;52.064;4.492;2024-02-14T06:40:44;16.20;;;8.57;;
64029;SDS011;50277;52.064;4.492;2024-02-14T06:43:09;19.30;;;10.25;;
64029;SDS011;50277;52.064;4.492;2024-02-14T06:45:34;18.65;;;9.77;;
64029;SDS011;50277;52.064;4.492;2024-02-14T06:48:00;19.15;;;10.55;;
64029;SDS011;50277;52.064;4.492;2024-02-14T06:50:25;19.25;;;10.63;;
64029;SDS011;50277;52.064;4.492;2024-02-14T06:52:50;18.70;;;9.82;;
64029;SDS011;50277;52.064;4.492;2024-02-14T06:55:16;19.75;;;10.10;;
64029;SDS011;50277;52.064;4.492;2024-02-14T06:57:42;24.80;;;11.52;;
64029;SDS011;50277;52.064;4.492;2024-02-14T07:00:07;20.05;;;10.48;;
64029;SDS011;50277;52.064;4.492;2024-02-14T07:02:33;21.13;;;10.38;;
64029;SDS011;50277;52.064;4.492;2024-02-14T07:04:59;19.48;;;10.43;;
64029;SDS011;50277;52.064;4.492;2024-02-14T07:07:24;19.83;;;9.93;;
64029;SDS011;50277;52.064;4.492;2024-02-14T07:09:50;24.45;;;9.90;;
64029;SDS011;50277;52.064;4.492;2024-02-14T07:12:16;22.70;;;9.82;;
64029;SDS011;50277;52.064;4.492;2024-02-14T07:14:41;27.13;;;11.45;;
64029;SDS011;50277;52.064;4.492;2024-02-14T07:17:07;16.73;;;9.23;;
64029;SDS011;50277;52.064;4.492;2024-02-14T07:19:32;18.02;;;9.75;;
64029;SDS011;50277;52.064;4.492;2024-02-14T07:21:57;16.33;;;9.35;;
64029;SDS011;50277;52.064;4.492;2024-02-14T07:24:23;14.65;;;9.50;;
64029;SDS011;50277;52.064;4.492;2024-02-14T07:26:48;14.57;;;10.25;;
64029;SDS011;50277;52.064;4.492;2024-02-14T07:29:13;18.83;;;10.23;;
64029;SDS011;50277;52.064;4.492;2024-02-14T07:31:39;16.45;;;9.32;;
64029;SDS011;50277;52.064;4.492;2024-02-14T07:34:04;17.92;;;9.75;;
64029;SDS011;50277;52.064;4.492;2024-02-14T07:36:31;16.40;;;9.98;;
64029;SDS011;50277;52.064;4.492;2024-02-14T07:38:56;12.88;;;8.82;;
64029;SDS011;50277;52.064;4.492;2024-02-14T07:41:22;13.65;;;9.35;;
64029;SDS011;50277;52.064;4.492;2024-02-14T07:43:47;13.07;;;9.13;;
64029;SDS011;50277;52.064;4.492;2024-02-14T07:46:17;11.23;;;8.52;;
64029;SDS011;50277;52.064;4.492;2024-02-14T07:48:45;16.15;;;8.65;;
64029;SDS011;50277;52.064;4.492;2024-02-14T07:51:11;11.27;;;8.40;;
64029;SDS011;50277;52.064;4.492;2024-02-14T07:53:37;12.68;;;8.32;;
64029;SDS011;50277;52.064;4.492;2024-02-14T07:56:02;14.10;;;9.05;;
64029;SDS011;50277;52.064;4.492;2024-02-14T07:58:28;16.48;;;9.07;;
64029;SDS011;50277;52.064;4.492;2024-02-14T08:00:53;18.88;;;8.95;;
64029;SDS011;50277;52.064;4.492;2024-02-14T08:03:18;10.18;;;8.63;;
64029;SDS011;50277;52.064;4.492;2024-02-14T08:05:44;9.85;;;8.45;;
64029;SDS011;50277;52.064;4.492;2024-02-14T08:08:09;11.10;;;8.13;;
64029;SDS011;50277;52.064;4.492;2024-02-14T08:10:35;11.18;;;9.13;;
64029;SDS011;50277;52.064;4.492;2024-02-14T08:13:00;11.65;;;9.18;;
64029;SDS011;50277;52.064;4.492;2024-02-14T08:15:26;14.38;;;9.25;;
64029;SDS011;50277;52.064;4.492;2024-02-14T08:17:51;16.05;;;9.30;;
64029;SDS011;50277;52.064;4.492;2024-02-14T08:20:20;8.63;;;7.88;;
64029;SDS011;50277;52.064;4.492;2024-02-14T08:22:46;9.95;;;9.05;;
64029;SDS011;50277;52.064;4.492;2024-02-14T08:25:11;10.43;;;9.23;;
64029;SDS011;50277;52.064;4.492;2024-02-14T08:27:36;9.80;;;8.50;;
64029;SDS011;50277;52.064;4.492;2024-02-14T08:30:02;8.98;;;8.15;;
64029;SDS011;50277;52.064;4.492;2024-02-14T08:32:29;8.88;;;8.05;;
64029;SDS011;50277;52.064;4.492;2024-02-14T08:34:54;10.65;;;9.75;;
64029;SDS011;50277;52.064;4.492;2024-02-14T08:37:20;10.27;;;9.27;;
64029;SDS011;50277;52.064;4.492;2024-02-14T08:39:45;11.32;;;10.05;;
64029;SDS011;50277;52.064;4.492;2024-02-14T08:42:10;11.75;;;10.65;;
64029;SDS011;50277;52.064;4.492;2024-02-14T08:44:36;13.23;;;11.98;;
64029;SDS011;50277;52.064;4.492;2024-02-14T08:47:02;13.38;;;12.07;;
64029;SDS011;50277;52.064;4.492;2024-02-14T08:49:29;17.05;;;13.52;;
64029;SDS011;50277;52.064;4.492;2024-02-14T08:51:54;14.90;;;13.40;;
64029;SDS011;50277;52.064;4.492;2024-02-14T08:54:20;15.73;;;13.57;;
64029;SDS011;50277;52.064;4.492;2024-02-14T08:56:46;15.40;;;13.20;;
64029;SDS011;50277;52.064;4.492;2024-02-14T08:59:12;14.02;;;12.60;;
64029;SDS011;50277;52.064;4.492;2024-02-14T09:01:37;13.30;;;12.00;;
64029;SDS011;50277;52.064;4.492;2024-02-14T09:04:03;12.57;;;11.30;;
64029;SDS011;50277;52.064;4.492;2024-02-14T09:06:28;12.95;;;11.65;;
64029;SDS011;50277;52.064;4.492;2024-02-14T09:08:54;11.57;;;10.38;;
64029;SDS011;50277;52.064;4.492;2024-02-14T09:11:19;12.77;;;11.10;;
64029;SDS011;50277;52.064;4.492;2024-02-14T09:13:45;14.63;;;11.70;;
64029;SDS011;50277;52.064;4.492;2024-02-14T09:16:12;12.73;;;11.45;;
64029;SDS011;50277;52.064;4.492;2024-02-14T09:18:40;12.73;;;10.30;;
64029;SDS011;50277;52.064;4.492;2024-02-14T09:21:05;11.93;;;10.60;;
64029;SDS011;50277;52.064;4.492;2024-02-14T09:23:31;12.15;;;10.93;;
64029;SDS011;50277;52.064;4.492;2024-02-14T09:25:57;11.95;;;9.02;;
64029;SDS011;50277;52.064;4.492;2024-02-14T09:28:22;10.30;;;9.30;;
64029;SDS011;50277;52.064;4.492;2024-02-14T09:30:48;11.07;;;9.38;;
64029;SDS011;50277;52.064;4.492;2024-02-14T09:33:13;11.32;;;9.38;;
64029;SDS011;50277;52.064;4.492;2024-02-14T09:35:39;10.65;;;9.65;;
64029;SDS011;50277;52.064;4.492;2024-02-14T09:38:09;11.13;;;10.02;;
64029;SDS011;50277;52.064;4.492;2024-02-14T09:40:35;10.70;;;9.70;;
64029;SDS011;50277;52.064;4.492;2024-02-14T09:43:01;10.48;;;9.43;;
64029;SDS011;50277;52.064;4.492;2024-02-14T09:45:28;12.20;;;10.70;;
64029;SDS011;50277;52.064;4.492;2024-02-14T09:47:55;12.27;;;11.07;;
64029;SDS011;50277;52.064;4.492;2024-02-14T09:50:22;12.40;;;10.38;;
64029;SDS011;50277;52.064;4.492;2024-02-14T09:52:49;12.10;;;10.63;;
64029;SDS011;50277;52.064;4.492;2024-02-14T09:55:15;12.25;;;11.05;;
64029;SDS011;50277;52.064;4.492;2024-02-14T09:57:41;11.60;;;10.50;;
64029;SDS011;50277;52.064;4.492;2024-02-14T10:00:07;11.50;;;10.40;;
64029;SDS011;50277;52.064;4.492;2024-02-14T10:02:35;12.38;;;11.25;;
64029;SDS011;50277;52.064;4.492;2024-02-14T10:05:00;10.23;;;9.32;;
64029;SDS011;50277;52.064;4.492;2024-02-14T10:07:26;11.00;;;10.00;;
64029;SDS011;50277;52.064;4.492;2024-02-14T10:09:52;12.18;;;10.20;;
64029;SDS011;50277;52.064;4.492;2024-02-14T10:12:18;12.50;;;10.20;;
64029;SDS011;50277;52.064;4.492;2024-02-14T10:14:44;10.07;;;9.18;;
64029;SDS011;50277;52.064;4.492;2024-02-14T10:17:16;10.88;;;9.70;;
64029;SDS011;50277;52.064;4.492;2024-02-14T10:19:54;8.35;;;7.65;;
64029;SDS011;50277;52.064;4.492;2024-02-14T10:22:21;7.80;;;7.00;;
64029;SDS011;50277;52.064;4.492;2024-02-14T10:24:46;7.38;;;6.68;;
64029;SDS011;50277;52.064;4.492;2024-02-14T10:27:12;8.05;;;6.88;;
64029;SDS011;50277;52.064;4.492;2024-02-14T10:29:37;5.72;;;5.22;;
64029;SDS011;50277;52.064;4.492;2024-02-14T10:32:03;5.72;;;5.22;;
64029;SDS011;50277;52.064;4.492;2024-02-14T10:34:29;5.18;;;4.65;;
64029;SDS011;50277;52.064;4.492;2024-02-14T10:36:56;4.95;;;4.55;;
64029;SDS011;50277;52.064;4.492;2024-02-14T10:39:23;5.13;;;4.60;;
64029;SDS011;50277;52.064;4.492;2024-02-14T10:41:50;5.03;;;4.53;;
64029;SDS011;50277;52.064;4.492;2024-02-14T10:44:16;4.65;;;4.20;;
64029;SDS011;50277;52.064;4.492;2024-02-14T10:46:41;4.60;;;4.18;;
64029;SDS011;50277;52.064;4.492;2024-02-14T10:49:08;4.55;;;4.15;;
64029;SDS011;50277;52.064;4.492;2024-02-14T10:51:36;5.22;;;4.80;;
64029;SDS011;50277;52.064;4.492;2024-02-14T10:54:12;5.43;;;4.97;;
64029;SDS011;50277;52.064;4.492;2024-02-14T10:56:41;6.25;;;5.70;;
64029;SDS011;50277;52.064;4.492;2024-02-14T10:59:10;5.85;;;4.95;;
64029;SDS011;50277;52.064;4.492;2024-02-14T11:01:36;5.85;;;5.25;;
64029;SDS011;50277;52.064;4.492;2024-02-14T11:04:02;5.57;;;5.18;;
64029;SDS011;50277;52.064;4.492;2024-02-14T11:06:29;7.00;;;5.80;;
64029;SDS011;50277;52.064;4.492;2024-02-14T11:09:00;7.22;;;5.90;;
64029;SDS011;50277;52.064;4.492;2024-02-14T11:11:32;6.63;;;6.00;;
64029;SDS011;50277;52.064;4.492;2024-02-14T11:13:57;7.57;;;6.97;;
64029;SDS011;50277;52.064;4.492;2024-02-14T11:16:26;6.90;;;6.30;;
64029;SDS011;50277;52.064;4.492;2024-02-14T11:19:13;7.63;;;6.93;;
64029;SDS011;50277;52.064;4.492;2024-02-14T11:21:46;8.32;;;7.25;;
64029;SDS011;50277;52.064;4.492;2024-02-14T11:24:12;7.40;;;6.75;;
64029;SDS011;50277;52.064;4.492;2024-02-14T11:26:47;7.07;;;6.38;;
64029;SDS011;50277;52.064;4.492;2024-02-14T11:29:16;6.72;;;6.15;;
64029;SDS011;50277;52.064;4.492;2024-02-14T11:31:42;6.82;;;6.22;;
64029;SDS011;50277;52.064;4.492;2024-02-14T11:34:08;6.82;;;6.22;;
64029;SDS011;50277;52.064;4.492;2024-02-14T11:36:36;7.40;;;6.65;;
64029;SDS011;50277;52.064;4.492;2024-02-14T11:39:02;6.60;;;6.00;;
64029;SDS011;50277;52.064;4.492;2024-02-14T11:41:29;6.63;;;6.00;;
64029;SDS011;50277;52.064;4.492;2024-02-14T11:43:55;6.97;;;6.38;;
64029;SDS011;50277;52.064;4.492;2024-02-14T11:46:20;6.13;;;5.55;;
64029;SDS011;50277;52.064;4.492;2024-02-14T11:48:46;6.25;;;5.72;;
64029;SDS011;50277;52.064;4.492;2024-02-14T11:51:11;7.15;;;6.05;;
64029;SDS011;50277;52.064;4.492;2024-02-14T11:53:37;5.82;;;5.40;;
64029;SDS011;50277;52.064;4.492;2024-02-14T11:56:04;5.68;;;5.10;;
64029;SDS011;50277;52.064;4.492;2024-02-14T11:58:30;5.93;;;5.38;;
64029;SDS011;50277;52.064;4.492;2024-02-14T12:00:56;5.95;;;5.45;;
64029;SDS011;50277;52.064;4.492;2024-02-14T12:03:22;5.40;;;4.90;;
64029;SDS011;50277;52.064;4.492;2024-02-14T12:05:52;6.40;;;5.80;;
64029;SDS011;50277;52.064;4.492;2024-02-14T12:08:18;5.72;;;4.78;;
64029;SDS011;50277;52.064;4.492;2024-02-14T12:10:44;5.10;;;4.70;;
64029;SDS011;50277;52.064;4.492;2024-02-14T12:13:14;5.75;;;5.15;;
64029;SDS011;50277;52.064;4.492;2024-02-14T12:15:43;5.85;;;5.35;;
64029;SDS011;50277;52.064;4.492;2024-02-14T12:18:09;6.32;;;5.38;;
64029;SDS011;50277;52.064;4.492;2024-02-14T12:20:35;6.20;;;4.93;;
64029;SDS011;50277;52.064;4.492;2024-02-14T12:23:02;6.53;;;5.90;;
64029;SDS011;50277;52.064;4.492;2024-02-14T12:25:27;5.88;;;5.38;;
64029;SDS011;50277;52.064;4.492;2024-02-14T12:27:53;5.95;;;5.40;;
64029;SDS011;50277;52.064;4.492;2024-02-14T12:30:21;6.50;;;5.90;;
64029;SDS011;50277;52.064;4.492;2024-02-14T12:32:59;6.15;;;5.65;;
64029;SDS011;50277;52.064;4.492;2024-02-14T12:35:26;5.97;;;5.47;;
64029;SDS011;50277;52.064;4.492;2024-02-14T12:37:51;6.72;;;6.05;;
64029;SDS011;50277;52.064;4.492;2024-02-14T12:40:19;6.10;;;5.20;;
64029;SDS011;50277;52.064;4.492;2024-02-14T12:42:45;6.82;;;6.03;;
64029;SDS011;50277;52.064;4.492;2024-02-14T12:45:10;7.43;;;6.10;;
64029;SDS011;50277;52.064;4.492;2024-02-14T12:47:36;5.90;;;5.30;;
64029;SDS011;50277;52.064;4.492;2024-02-14T12:50:02;6.82;;;5.93;;
64029;SDS011;50277;52.064;4.492;2024-02-14T12:52:27;6.50;;;5.90;;
64029;SDS011;50277;52.064;4.492;2024-02-14T12:54:53;7.13;;;5.80;;
64029;SDS011;50277;52.064;4.492;2024-02-14T12:57:18;6.30;;;5.80;;
64029;SDS011;50277;52.064;4.492;2024-02-14T12:59:46;8.37;;;7.57;;
64029;SDS011;50277;52.064;4.492;2024-02-14T13:02:11;5.90;;;5.40;;
64029;SDS011;50277;52.064;4.492;2024-02-14T13:04:37;6.05;;;5.53;;
64029;SDS011;50277;52.064;4.492;2024-02-14T13:07:03;5.35;;;4.90;;
64029;SDS011;50277;52.064;4.492;2024-02-14T13:09:29;6.22;;;4.88;;
64029;SDS011;50277;52.064;4.492;2024-02-14T13:11:54;6.00;;;4.82;;
64029;SDS011;50277;52.064;4.492;2024-02-14T13:14:19;5.32;;;4.93;;
64029;SDS011;50277;52.064;4.492;2024-02-14T13:16:45;5.15;;;4.65;;
64029;SDS011;50277;52.064;4.492;2024-02-14T13:19:10;5.38;;;4.85;;
64029;SDS011;50277;52.064;4.492;2024-02-14T13:21:35;4.72;;;4.22;;
64029;SDS011;50277;52.064;4.492;2024-02-14T13:24:01;4.38;;;3.97;;
64029;SDS011;50277;52.064;4.492;2024-02-14T13:26:26;3.53;;;3.30;;
64029;SDS011;50277;52.064;4.492;2024-02-14T13:28:53;4.15;;;3.60;;
64029;SDS011;50277;52.064;4.492;2024-02-14T13:31:19;3.30;;;3.10;;
64029;SDS011;50277;52.064;4.492;2024-02-14T13:33:44;3.13;;;2.92;;
64029;SDS011;50277;52.064;4.492;2024-02-14T13:36:10;2.58;;;2.38;;
64029;SDS011;50277;52.064;4.492;2024-02-14T13:38:35;2.15;;;2.00;;
64029;SDS011;50277;52.064;4.492;2024-02-14T13:41:00;2.60;;;2.40;;
64029;SDS011;50277;52.064;4.492;2024-02-14T13:43:26;2.10;;;2.00;;
64029;SDS011;50277;52.064;4.492;2024-02-14T13:45:51;2.10;;;2.00;;
64029;SDS011;50277;52.064;4.492;2024-02-14T13:48:17;2.00;;;1.90;;
64029;SDS011;50277;52.064;4.492;2024-02-14T13:50:42;2.00;;;1.80;;
64029;SDS011;50277;52.064;4.492;2024-02-14T13:53:08;1.67;;;1.60;;
64029;SDS011;50277;52.064;4.492;2024-02-14T13:55:33;1.80;;;1.70;;
64029;SDS011;50277;52.064;4.492;2024-02-14T13:57:59;1.50;;;1.50;;
64029;SDS011;50277;52.064;4.492;2024-02-14T14:00:25;1.35;;;1.33;;
64029;SDS011;50277;52.064;4.492;2024-02-14T14:02:50;1.10;;;1.10;;
64029;SDS011;50277;52.064;4.492;2024-02-14T14:05:15;1.08;;;1.08;;
64029;SDS011;50277;52.064;4.492;2024-02-14T14:07:41;1.92;;;1.05;;
64029;SDS011;50277;52.064;4.492;2024-02-14T14:10:07;2.10;;;1.30;;
64029;SDS011;50277;52.064;4.492;2024-02-14T14:12:34;1.67;;;1.38;;
64029;SDS011;50277;52.064;4.492;2024-02-14T14:15:00;1.67;;;1.38;;
64029;SDS011;50277;52.064;4.492;2024-02-14T14:17:26;1.13;;;1.13;;
64029;SDS011;50277;52.064;4.492;2024-02-14T14:19:52;3.58;;;1.40;;
64029;SDS011;50277;52.064;4.492;2024-02-14T14:22:18;1.33;;;1.13;;
64029;SDS011;50277;52.064;4.492;2024-02-14T14:24:43;1.50;;;1.40;;
64029;SDS011;50277;52.064;4.492;2024-02-14T14:27:09;1.38;;;1.30;;
64029;SDS011;50277;52.064;4.492;2024-02-14T14:29:39;1.85;;;1.40;;